Santa Teresita, Argentina
Current Conditions -  °F | °C
As of 11:00 PM on Sunday 23 Nov 2014 (Local Time) from SAZM Reporting Station
Overcast Overcast  
Wind Chill: 70°   Ceiling: 4000
Heat Index: 70°   Visibility: 6mi
Dew Point: 59°   Wind: 5mph
Humidity: 68%   Direction: 70°ENE
Pressure: 29.68"   Gusts: NA
Location:  36.53°S, 56.68°W
Report Text: SAZM 240200Z 07004KT 9999 OVC040 FEW050CB21/15 Q1005
Loading
Personal Weather Stations






























Interactive Weather Map New forecast layout! Learn more

10-Day Weather Forecast

Advertisements
Track Severe Weather on mobile